ITY25P EGPH-ENBR
Flight info
| Callsign | ITY25P |
|---|---|
| Flight time | N/A |
| Altitude | 37000 |
| Route | GRICE P600 ASNUD DCT BEREP DCT MODNI |
| Aircraft | A320/M-SDE3FGHIRWY/LB1 |
Departure
| Time | 2026-04-26 10:51 |
|---|---|
| Airport | Edinburgh Airport (EGPH) |
Arrival
| Time | N/A |
|---|---|
| Airport | Bergen Airport, Flesland (ENBR) |
| Time | Latitude | Longitude | Altitude | Speed | Heading |
|---|---|---|---|---|---|
| 2026-04-26 10:20 | 55.94807 | -3.35776 | 117 ft | 0 kts | 208° |
| 2026-04-26 10:40 | 55.94818 | -3.35765 | 115 ft | 4 kts | 208° |
| 2026-04-26 10:40 | 55.94842 | -3.35742 | 115 ft | 4 kts | 210° |
| 2026-04-26 10:40 | 55.94863 | -3.35718 | 115 ft | 3 kts | 218° |
| 2026-04-26 10:40 | 55.94875 | -3.35700 | 112 ft | 2 kts | 250° |
| 2026-04-26 10:41 | 55.94877 | -3.35681 | 113 ft | 2 kts | 291° |
| 2026-04-26 10:41 | 55.94873 | -3.35663 | 113 ft | 2 kts | 298° |
| 2026-04-26 10:41 | 55.94870 | -3.35652 | 112 ft | 0 kts | 299° |
| 2026-04-26 10:45 | 55.94870 | -3.35653 | 112 ft | 1 kts | 299° |
| 2026-04-26 10:46 | 55.94888 | -3.35712 | 113 ft | 10 kts | 299° |
| 2026-04-26 10:46 | 55.94944 | -3.35847 | 114 ft | 17 kts | 329° |
| 2026-04-26 10:46 | 55.95044 | -3.35797 | 115 ft | 12 kts | 39° |
| 2026-04-26 10:46 | 55.95055 | -3.35770 | 115 ft | 0 kts | 59° |
| 2026-04-26 10:47 | 55.95078 | -3.35775 | 115 ft | 9 kts | 339° |
| 2026-04-26 10:47 | 55.95119 | -3.35863 | 114 ft | 9 kts | 302° |
| 2026-04-26 10:47 | 55.95157 | -3.35936 | 113 ft | 7 kts | 325° |
| 2026-04-26 10:48 | 55.95204 | -3.35974 | 113 ft | 10 kts | 351° |
| 2026-04-26 10:48 | 55.95274 | -3.35870 | 115 ft | 17 kts | 59° |
| 2026-04-26 10:48 | 55.95339 | -3.35675 | 115 ft | 19 kts | 59° |
| 2026-04-26 10:48 | 55.95406 | -3.35479 | 116 ft | 14 kts | 58° |
| 2026-04-26 10:49 | 55.95477 | -3.35417 | 113 ft | 13 kts | 336° |
| 2026-04-26 10:49 | 55.95497 | -3.35436 | 114 ft | 0 kts | 331° |
| 2026-04-26 10:49 | 55.95499 | -3.35437 | 114 ft | 0 kts | 331° |
| 2026-04-26 10:49 | 55.95504 | -3.35443 | 113 ft | 3 kts | 330° |
| 2026-04-26 10:50 | 55.95560 | -3.35543 | 113 ft | 18 kts | 286° |
| 2026-04-26 10:50 | 55.95547 | -3.35635 | 113 ft | 17 kts | 243° |
| 2026-04-26 10:50 | 55.95512 | -3.35742 | 113 ft | 0 kts | 239° |
| 2026-04-26 10:51 | 55.95373 | -3.36158 | 110 ft | 80 kts | 239° |
| 2026-04-26 10:51 | 55.94433 | -3.38977 | 492 ft | 158 kts | 238° |
| 2026-04-26 10:51 | 55.93838 | -3.40646 | 1190 ft | 160 kts | 237° |
| 2026-04-26 10:52 | 55.93231 | -3.42372 | 1744 ft | 173 kts | 237° |
| 2026-04-26 10:52 | 55.92555 | -3.44315 | 2094 ft | 196 kts | 237° |
| 2026-04-26 10:52 | 55.91794 | -3.46517 | 2441 ft | 221 kts | 237° |
| 2026-04-26 10:52 | 55.90943 | -3.48981 | 2930 ft | 244 kts | 238° |
| 2026-04-26 10:53 | 55.90153 | -3.51705 | 3740 ft | 252 kts | 255° |
| 2026-04-26 10:53 | 55.90205 | -3.54822 | 4629 ft | 259 kts | 289° |
| 2026-04-26 10:53 | 55.91256 | -3.57391 | 5504 ft | 269 kts | 321° |
| 2026-04-26 10:54 | 55.94575 | -3.58265 | 5986 ft | 280 kts | 20° |
| 2026-04-26 10:54 | 55.96287 | -3.56612 | 6008 ft | 281 kts | 33° |
| 2026-04-26 10:54 | 55.97848 | -3.54502 | 6010 ft | 282 kts | 38° |
| 2026-04-26 10:54 | 55.99441 | -3.52477 | 6007 ft | 281 kts | 25° |
| 2026-04-26 10:55 | 56.01300 | -3.51614 | 6009 ft | 276 kts | 357° |
| 2026-04-26 10:55 | 56.03164 | -3.52238 | 6011 ft | 273 kts | 341° |
| 2026-04-26 10:55 | 56.04984 | -3.53208 | 6007 ft | 272 kts | 334° |
| 2026-04-26 10:55 | 56.06532 | -3.54981 | 6007 ft | 267 kts | 312° |
| 2026-04-26 10:56 | 56.07617 | -3.57635 | 6007 ft | 265 kts | 299° |
| 2026-04-26 10:56 | 56.08596 | -3.60422 | 6003 ft | 265 kts | 304° |
| 2026-04-26 10:56 | 56.09870 | -3.62829 | 6003 ft | 268 kts | 319° |
| 2026-04-26 10:56 | 56.11469 | -3.64568 | 6002 ft | 271 kts | 334° |
| 2026-04-26 10:57 | 56.13271 | -3.65616 | 6002 ft | 273 kts | 343° |
| 2026-04-26 10:57 | 56.15118 | -3.66445 | 5999 ft | 274 kts | 343° |
| 2026-04-26 10:57 | 56.16965 | -3.67280 | 5996 ft | 274 kts | 346° |
| 2026-04-26 10:57 | 56.18867 | -3.67543 | 5995 ft | 277 kts | 2° |
| 2026-04-26 10:58 | 56.20730 | -3.66775 | 6114 ft | 286 kts | 21° |
| 2026-04-26 10:58 | 56.22454 | -3.64960 | 7010 ft | 288 kts | 34° |
| 2026-04-26 10:58 | 56.24096 | -3.62860 | 7895 ft | 291 kts | 34° |
| 2026-04-26 10:58 | 56.25758 | -3.60730 | 8739 ft | 296 kts | 34° |
| 2026-04-26 10:59 | 56.27444 | -3.58565 | 9590 ft | 300 kts | 34° |
| 2026-04-26 10:59 | 56.29155 | -3.56364 | 10376 ft | 305 kts | 34° |
| 2026-04-26 10:59 | 56.30941 | -3.54075 | 10734 ft | 327 kts | 34° |
| 2026-04-26 10:59 | 56.32859 | -3.51614 | 10967 ft | 350 kts | 34° |
| 2026-04-26 11:00 | 56.34881 | -3.49006 | 11407 ft | 363 kts | 35° |